Fort Pillow, Tennessee
Current Conditions -  °F | °C
As of 12:44 PM on Sunday 23 Nov 2014 (Local Time) from KHKA Reporting Station
Heavy Rain Heavy Rain  
Wind Chill: 65°   Ceiling: 1400
Heat Index: 65°   Visibility: 1.7mi
Dew Point: 58°   Wind: 9mph
Humidity: 78%   Direction: 130°SE
Pressure: 29.45"   Gusts: NA
Location:  35.7162°N, 89.6967°W
Report Text: KHKA 231844Z AUTO 13008KT 1 3/4SM +RA SCT008 BKN014 OVC026 18/14 A2945 RMK AO2 PRESFR P0032 T01830144 $
Loading
Personal Weather Stations






























Interactive Weather Map New forecast layout! Learn more

10-Day Weather Forecast

Advertisements
Track Severe Weather on mobile